Time;durP1;ratioP1;P1;durP2;ratioP2;P2;SDS_P1;SDS_P2;PMS_P1;PMS_P2;Temp;Humidity;BMP_temperature;BMP_pressure;BME280_temperature;BME280_humidity;BME280_pressure;Samples;Min_cycle;Max_cycle;Signal;HPM_P1;HPM_P2
2022/07/31 00:01:13;;;;;;;0.50;0.30;;;18.70;99.90;;;;;;5108464;28;20461;-71
2022/07/31 00:03:40;;;;;;;0.70;0.40;;;18.70;99.90;;;;;;5101686;28;20048;-71
2022/07/31 00:06:07;;;;;;;1.50;0.30;;;18.70;99.90;;;;;;5107872;28;20123;-71
2022/07/31 00:08:33;;;;;;;0.80;0.30;;;18.70;99.90;;;;;;5104613;28;20387;-71
2022/07/31 00:10:59;;;;;;;0.30;0.30;;;18.70;99.90;;;;;;5102032;28;20456;-71
2022/07/31 00:13:24;;;;;;;;;;;18.70;99.90;;;;;;5108097;28;20122;-71
2022/07/31 00:15:50;;;;;;;0.45;0.30;;;18.60;99.90;;;;;;5092760;28;20340;-71
2022/07/31 00:18:16;;;;;;;;;;;18.70;99.90;;;;;;5094934;28;20089;-71
2022/07/31 00:20:43;;;;;;;0.35;0.30;;;18.70;99.90;;;;;;5088175;28;19969;-71
2022/07/31 00:23:09;;;;;;;0.30;0.30;;;18.70;99.90;;;;;;5079422;28;20119;-71
2022/07/31 00:25:35;;;;;;;0.77;0.35;;;18.60;99.90;;;;;;5087137;28;20071;-71
2022/07/31 00:28:01;;;;;;;;;;;18.60;99.90;;;;;;5107993;28;20039;-71
2022/07/31 00:30:26;;;;;;;0.63;0.30;;;18.60;99.90;;;;;;5106856;28;19919;-71
2022/07/31 00:32:52;;;;;;;0.20;0.20;;;18.60;99.90;;;;;;5079829;28;20047;-71
2022/07/31 00:35:18;;;;;;;0.20;0.20;;;18.60;99.90;;;;;;5110480;28;20079;-71
2022/07/31 00:37:46;;;;;;;0.20;0.20;;;18.60;99.90;;;;;;5105339;28;20040;-71
2022/07/31 00:40:15;;;;;;;;;;;18.60;99.90;;;;;;5109184;28;20077;-71
2022/07/31 00:42:41;;;;;;;0.30;0.28;;;18.60;99.90;;;;;;5103417;28;19915;-71
2022/07/31 00:45:07;;;;;;;;;;;18.60;99.90;;;;;;5108373;28;20467;-71
2022/07/31 00:47:33;;;;;;;0.30;0.30;;;18.60;99.90;;;;;;5090843;28;19919;-71
2022/07/31 00:49:58;;;;;;;;;;;18.60;99.90;;;;;;5102264;28;20504;-71
2022/07/31 00:52:24;;;;;;;0.30;0.28;;;18.50;99.90;;;;;;5110864;28;19915;-71
2022/07/31 00:54:50;;;;;;;;;;;18.50;99.90;;;;;;5112314;28;20047;-71
2022/07/31 00:57:16;;;;;;;0.20;0.20;;;18.50;99.90;;;;;;5109910;28;20342;-71
2022/07/31 00:59:42;;;;;;;;;;;18.50;99.90;;;;;;5111260;28;20054;-71
2022/07/31 01:02:09;;;;;;;0.40;0.30;;;18.50;99.90;;;;;;5104257;28;20010;-71
2022/07/31 01:04:34;;;;;;;0.45;0.35;;;18.40;99.90;;;;;;5093624;28;20171;-71
2022/07/31 01:07:00;;;;;;;;;;;18.40;99.90;;;;;;5110058;28;20043;-71
2022/07/31 01:09:26;;;;;;;0.50;0.30;;;18.40;99.90;;;;;;5110357;28;19920;-71
2022/07/31 01:11:51;;;;;;;;;;;18.40;99.90;;;;;;5089501;28;20043;-71
2022/07/31 01:14:23;;;;;;;0.50;0.50;;;18.30;99.90;;;;;;5090930;28;19912;-71
2022/07/31 01:16:52;;;;;;;0.30;0.30;;;18.30;99.90;;;;;;5099920;28;20043;-71
2022/07/31 01:19:36;;;;;;;0.20;0.20;;;18.30;99.90;;;;;;5100535;28;20032;-71
2022/07/31 01:22:26;;;;;;;0.38;0.30;;;18.30;99.90;;;;;;5097609;28;20166;-71
2022/07/31 01:25:26;;;;;;;0.60;0.30;;;18.30;99.90;;;;;;5103578;28;20117;-72
2022/07/31 01:28:10;;;;;;;0.32;0.30;;;18.30;99.90;;;;;;5091870;28;20044;-71
2022/07/31 01:30:50;;;;;;;0.32;0.30;;;18.30;99.90;;;;;;5105587;28;20054;-71
2022/07/31 01:33:19;;;;;;;0.30;0.30;;;18.30;99.90;;;;;;5098744;28;20046;-71
2022/07/31 01:35:54;;;;;;;0.40;0.40;;;18.30;99.90;;;;;;5098262;28;20105;-71
2022/07/31 01:38:24;;;;;;;0.32;0.30;;;18.30;99.90;;;;;;5110908;28;20441;-71
2022/07/31 01:40:56;;;;;;;0.40;0.40;;;18.20;99.90;;;;;;5110779;28;20748;-71
2022/07/31 01:43:28;;;;;;;0.38;0.38;;;18.20;99.90;;;;;;5106921;28;20035;-71
2022/07/31 01:45:56;;;;;;;0.35;0.32;;;18.20;99.90;;;;;;5108212;28;20065;-71
2022/07/31 01:48:22;;;;;;;0.30;0.30;;;18.20;99.90;;;;;;5107144;28;20431;-71
2022/07/31 01:50:51;;;;;;;0.50;0.40;;;18.20;99.90;;;;;;5102237;28;20055;-72
2022/07/31 01:53:20;;;;;;;0.43;0.40;;;18.20;99.90;;;;;;5087562;28;20032;-71
2022/07/31 01:55:47;;;;;;;0.30;0.30;;;18.20;99.90;;;;;;5112232;28;20042;-71
2022/07/31 01:58:14;;;;;;;0.38;0.30;;;18.20;99.90;;;;;;5109151;28;20467;-71
2022/07/31 02:00:41;;;;;;;0.43;0.40;;;18.20;99.90;;;;;;5102506;28;20035;-71
2022/07/31 02:03:09;;;;;;;0.55;0.40;;;18.20;99.90;;;;;;5093160;28;20050;-71
2022/07/31 02:05:35;;;;;;;0.30;0.30;;;18.20;99.90;;;;;;5091378;28;20040;-71
2022/07/31 02:08:05;;;;;;;0.55;0.40;;;18.20;99.90;;;;;;5071282;28;20039;-71
2022/07/31 02:10:31;;;;;;;0.40;0.30;;;18.20;99.90;;;;;;5095928;28;20165;-71
2022/07/31 02:12:57;;;;;;;;;;;18.20;99.90;;;;;;5090377;28;20036;-71
2022/07/31 02:15:24;;;;;;;0.65;0.47;;;18.20;99.90;;;;;;5097895;28;19916;-71
2022/07/31 02:17:51;;;;;;;0.70;0.60;;;18.20;99.90;;;;;;5096752;28;20035;-71
2022/07/31 02:20:19;;;;;;;0.32;0.32;;;18.20;99.90;;;;;;5094509;28;20056;-71
2022/07/31 02:22:45;;;;;;;0.60;0.45;;;18.20;99.90;;;;;;5099581;28;20425;-71
2022/07/31 02:25:10;;;;;;;;;;;18.20;99.90;;;;;;5077693;28;20040;-71
2022/07/31 02:27:39;;;;;;;0.47;0.43;;;18.20;99.90;;;;;;5092987;28;19923;-71
2022/07/31 02:30:05;;;;;;;0.52;0.40;;;18.20;99.90;;;;;;5099169;28;20138;-71
2022/07/31 02:32:32;;;;;;;0.88;0.40;;;18.20;99.90;;;;;;5092052;28;20066;-71
2022/07/31 02:35:00;;;;;;;0.43;0.30;;;18.20;99.90;;;;;;5097353;28;20100;-71
2022/07/31 02:37:28;;;;;;;0.30;0.30;;;18.20;99.90;;;;;;5094353;28;20399;-71
2022/07/31 02:39:54;;;;;;;0.70;0.45;;;18.20;99.90;;;;;;5106635;28;20151;-71
2022/07/31 02:42:21;;;;;;;0.73;0.50;;;18.20;99.90;;;;;;5099016;28;20043;-71
2022/07/31 02:44:48;;;;;;;0.60;0.50;;;18.20;99.90;;;;;;5105310;28;20127;-71
2022/07/31 02:47:15;;;;;;;0.30;0.30;;;18.20;99.90;;;;;;5106713;28;20040;-71
2022/07/31 02:49:41;;;;;;;0.57;0.47;;;18.20;99.90;;;;;;5109118;28;20051;-71
2022/07/31 02:52:08;;;;;;;0.50;0.50;;;18.20;99.90;;;;;;5103030;28;20120;-71
2022/07/31 02:54:38;;;;;;;0.50;0.30;;;18.20;99.90;;;;;;5101337;28;20052;-71
2022/07/31 02:57:04;;;;;;;0.35;0.32;;;18.20;99.90;;;;;;5107545;28;20044;-71
2022/07/31 02:59:30;;;;;;;1.13;0.40;;;18.10;99.90;;;;;;5081602;28;20039;-71
2022/07/31 03:01:57;;;;;;;0.35;0.35;;;18.10;99.90;;;;;;5093705;28;20050;-71
2022/07/31 03:04:23;;;;;;;0.30;0.30;;;18.20;99.90;;;;;;5104238;28;20434;-71
2022/07/31 03:06:49;;;;;;;;;;;18.20;99.90;;;;;;5100830;28;20039;-71
2022/07/31 03:09:15;;;;;;;1.45;0.75;;;18.20;99.90;;;;;;5107923;28;20278;-71
2022/07/31 03:11:41;;;;;;;0.55;0.50;;;18.20;99.90;;;;;;5093306;28;20036;-71
2022/07/31 03:14:07;;;;;;;;;;;18.10;99.90;;;;;;5094236;28;20073;-71
2022/07/31 03:16:34;;;;;;;0.67;0.50;;;18.10;99.90;;;;;;5101585;28;19916;-71
2022/07/31 03:19:02;;;;;;;0.98;0.47;;;18.10;99.90;;;;;;5108672;28;20050;-71
2022/07/31 03:21:29;;;;;;;0.40;0.40;;;18.10;99.90;;;;;;5109041;28;20044;-71
2022/07/31 03:23:55;;;;;;;0.80;0.50;;;18.10;99.90;;;;;;5100246;28;20039;-71
2022/07/31 03:26:21;;;;;;;0.50;0.30;;;18.10;99.90;;;;;;5098224;28;20405;-71
2022/07/31 03:28:47;;;;;;;;;;;18.10;99.90;;;;;;5076707;28;20044;-72
2022/07/31 03:31:13;;;;;;;0.60;0.40;;;18.10;99.90;;;;;;5109757;28;19965;-71
2022/07/31 03:33:38;;;;;;;;;;;18.10;99.90;;;;;;5102669;28;20043;-71
2022/07/31 03:36:04;;;;;;;0.60;0.40;;;18.00;99.90;;;;;;5105320;28;20443;-71
2022/07/31 03:38:30;;;;;;;0.30;0.30;;;18.00;99.90;;;;;;5084195;28;20044;-71
2022/07/31 03:40:56;;;;;;;0.45;0.40;;;18.00;99.90;;;;;;5108531;28;20051;-71
2022/07/31 03:43:22;;;;;;;0.45;0.32;;;18.00;99.90;;;;;;5103672;28;20048;-71
2022/07/31 03:45:48;;;;;;;;;;;18.00;99.90;;;;;;5092183;28;20075;-71
2022/07/31 03:48:13;;;;;;;0.40;0.40;;;17.90;99.90;;;;;;5107977;28;19966;-71
2022/07/31 03:50:40;;;;;;;0.47;0.47;;;17.90;99.90;;;;;;5102043;28;20052;-71
2022/07/31 03:53:07;;;;;;;0.32;0.32;;;17.90;99.90;;;;;;5073142;28;20390;-71
2022/07/31 03:55:34;;;;;;;0.93;0.60;;;17.80;99.90;;;;;;5093252;28;20123;-71
2022/07/31 03:58:02;;;;;;;0.60;0.40;;;17.90;99.90;;;;;;5104632;28;20078;-71
2022/07/31 04:00:28;;;;;;;0.57;0.50;;;17.80;99.90;;;;;;5100480;28;20044;-71
2022/07/31 04:02:55;;;;;;;0.63;0.30;;;17.80;99.90;;;;;;5091773;28;20039;-71
2022/07/31 04:05:22;;;;;;;0.55;0.38;;;17.80;99.90;;;;;;5071418;28;20452;-71
2022/07/31 04:07:49;;;;;;;0.40;0.40;;;17.80;99.90;;;;;;5093927;28;20080;-70
2022/07/31 04:10:15;;;;;;;0.35;0.35;;;17.80;99.90;;;;;;5090579;28;20456;-70
2022/07/31 04:12:40;;;;;;;0.40;0.30;;;17.80;99.90;;;;;;5094736;28;20063;-71
2022/07/31 04:15:06;;;;;;;0.85;0.40;;;17.80;99.90;;;;;;5091043;28;20044;-71
2022/07/31 04:17:32;;;;;;;1.30;0.38;;;17.80;99.90;;;;;;5096144;28;20036;-71
2022/07/31 04:19:58;;;;;;;0.40;0.40;;;17.70;99.90;;;;;;5096917;28;20044;-70
2022/07/31 04:22:24;;;;;;;0.30;0.30;;;17.70;99.90;;;;;;5089476;28;20165;-70
2022/07/31 04:24:49;;;;;;;0.43;0.32;;;17.70;99.90;;;;;;5094244;28;20079;-70
2022/07/31 04:27:16;;;;;;;0.63;0.20;;;17.60;99.90;;;;;;5071524;28;20044;-70
2022/07/31 04:29:43;;;;;;;0.22;0.22;;;17.60;99.90;;;;;;5089262;28;20075;-70
2022/07/31 04:32:09;;;;;;;0.75;0.20;;;17.60;99.90;;;;;;5088783;28;20075;-71
2022/07/31 04:34:35;;;;;;;;;;;17.60;99.90;;;;;;5076683;28;20039;-71
2022/07/31 04:37:01;;;;;;;0.20;0.20;;;17.60;99.90;;;;;;5107550;28;19920;-71
2022/07/31 04:39:26;;;;;;;;;;;17.60;99.90;;;;;;5070564;28;20047;-70
2022/07/31 04:41:52;;;;;;;0.57;0.40;;;17.70;99.90;;;;;;5088061;28;19923;-71
2022/07/31 04:44:18;;;;;;;0.40;0.40;;;17.70;99.90;;;;;;5103524;28;20391;-71
2022/07/31 04:46:44;;;;;;;;;;;17.70;99.90;;;;;;5087564;28;20028;-71
2022/07/31 04:49:13;;;;;;;0.57;0.40;;;17.70;99.90;;;;;;5101690;28;20251;-71
2022/07/31 04:51:43;;;;;;;0.30;0.30;;;17.70;99.90;;;;;;5091073;28;20189;-71
2022/07/31 04:54:10;;;;;;;0.30;0.30;;;17.60;99.90;;;;;;5083074;28;20039;-70
2022/07/31 04:56:40;;;;;;;0.47;0.40;;;17.60;99.90;;;;;;5081741;28;20028;-71
2022/07/31 04:59:14;;;;;;;0.60;0.30;;;17.70;99.90;;;;;;5102814;28;20055;-70
2022/07/31 05:01:42;;;;;;;0.22;0.20;;;17.70;99.90;;;;;;5102607;28;20039;-71
2022/07/31 05:04:08;;;;;;;0.50;0.30;;;17.70;99.90;;;;;;5109688;28;20457;-71
2022/07/31 05:06:39;;;;;;;0.70;0.30;;;17.70;99.90;;;;;;5108003;28;20043;-70
2022/07/31 05:09:07;;;;;;;0.30;0.30;;;17.70;99.90;;;;;;5109486;28;20147;-71
2022/07/31 05:11:34;;;;;;;0.30;0.30;;;17.80;99.90;;;;;;5100636;28;20040;-70
2022/07/31 05:14:01;;;;;;;0.35;0.30;;;17.80;99.90;;;;;;5112732;28;20039;-70
2022/07/31 05:16:28;;;;;;;0.30;0.30;;;17.80;99.90;;;;;;5082550;28;20040;-70
2022/07/31 05:18:55;;;;;;;0.32;0.22;;;17.90;99.90;;;;;;5095041;28;20035;-71
2022/07/31 05:21:21;;;;;;;0.20;0.20;;;17.90;99.90;;;;;;5109771;28;20945;-70
2022/07/31 05:23:49;;;;;;;0.20;0.20;;;18.00;99.90;;;;;;5084839;28;20039;-71
2022/07/31 05:26:16;;;;;;;0.38;0.38;;;18.00;99.90;;;;;;5112724;28;20112;-70
2022/07/31 05:28:42;;;;;;;0.43;0.43;;;18.00;99.90;;;;;;5106878;28;20482;-70
2022/07/31 05:31:08;;;;;;;;;;;18.00;99.90;;;;;;5103938;28;20118;-71
2022/07/31 05:33:35;;;;;;;0.98;0.43;;;18.10;99.90;;;;;;5077590;28;19931;-70
2022/07/31 05:36:02;;;;;;;0.63;0.50;;;18.10;99.90;;;;;;5107970;28;20043;-71
2022/07/31 05:38:27;;;;;;;0.40;0.40;;;18.20;99.90;;;;;;5107967;28;20379;-70
2022/07/31 05:40:53;;;;;;;;;;;18.20;99.90;;;;;;5108666;28;20065;-70
2022/07/31 05:43:19;;;;;;;0.57;0.50;;;18.20;99.90;;;;;;5089735;28;19916;-71
2022/07/31 05:45:47;;;;;;;0.43;0.40;;;18.20;99.90;;;;;;5107153;28;20105;-71
2022/07/31 05:48:17;;;;;;;0.45;0.45;;;18.30;99.90;;;;;;5106935;28;20078;-71
2022/07/31 05:50:44;;;;;;;1.05;0.60;;;18.30;99.90;;;;;;5077731;28;20048;-70
2022/07/31 05:53:12;;;;;;;0.50;0.50;;;18.30;99.90;;;;;;5103097;28;20507;-70
2022/07/31 05:55:38;;;;;;;0.50;0.50;;;18.30;99.90;;;;;;5097881;28;20032;-70
2022/07/31 05:58:04;;;;;;;0.50;0.40;;;18.40;99.90;;;;;;5099181;28;20044;-71
2022/07/31 06:00:30;;;;;;;;;;;18.40;99.90;;;;;;5098362;28;20043;-70
2022/07/31 06:02:55;;;;;;;0.80;0.50;;;18.50;99.90;;;;;;5101369;28;20361;-70
2022/07/31 06:05:22;;;;;;;0.85;0.50;;;18.50;99.90;;;;;;5100356;28;20140;-70
2022/07/31 06:07:50;;;;;;;0.60;0.52;;;18.50;99.90;;;;;;5109519;28;20066;-71
2022/07/31 06:10:16;;;;;;;0.80;0.60;;;18.60;99.90;;;;;;5102623;28;20048;-70
2022/07/31 06:12:41;;;;;;;;;;;18.60;99.90;;;;;;5098281;28;20055;-71
2022/07/31 06:15:07;;;;;;;0.32;0.32;;;18.60;99.90;;;;;;5100518;28;19922;-71
2022/07/31 06:17:33;;;;;;;;;;;18.70;99.90;;;;;;5093818;28;20482;-71
2022/07/31 06:19:58;;;;;;;0.30;0.30;;;18.80;99.90;;;;;;5094297;28;20357;-70
2022/07/31 06:22:24;;;;;;;;;;;18.80;99.90;;;;;;5105851;28;20493;-71
2022/07/31 06:24:50;;;;;;;0.90;0.60;;;18.90;99.90;;;;;;5095060;28;19930;-70
2022/07/31 06:27:16;;;;;;;;;;;18.90;99.90;;;;;;5092134;28;20035;-70
2022/07/31 06:29:41;;;;;;;0.77;0.40;;;19.00;99.90;;;;;;5091636;28;20399;-70
2022/07/31 06:32:07;;;;;;;;;;;19.10;99.90;;;;;;5094700;28;20035;-70
2022/07/31 06:34:33;;;;;;;0.40;0.40;;;19.10;99.90;;;;;;5077272;28;20283;-70
2022/07/31 06:36:59;;;;;;;;;;;19.20;99.90;;;;;;5101811;28;20035;-71
2022/07/31 06:39:24;;;;;;;0.77;0.68;;;19.30;99.90;;;;;;5090966;28;19916;-70
2022/07/31 06:41:51;;;;;;;1.08;0.65;;;19.30;99.90;;;;;;5081493;28;20504;-70
2022/07/31 06:44:18;;;;;;;0.85;0.50;;;19.40;99.90;;;;;;5093430;28;20071;-70
2022/07/31 06:46:47;;;;;;;0.68;0.50;;;19.50;99.90;;;;;;5090479;28;20036;-70
2022/07/31 06:49:14;;;;;;;0.57;0.57;;;19.60;99.90;;;;;;5107566;28;20051;-70
2022/07/31 06:51:40;;;;;;;1.13;0.80;;;19.60;99.90;;;;;;5088889;28;20479;-70
2022/07/31 06:54:09;;;;;;;1.15;0.70;;;19.70;99.90;;;;;;5100526;28;20050;-71
2022/07/31 06:56:36;;;;;;;0.60;0.50;;;19.70;99.90;;;;;;5110477;28;20428;-70
2022/07/31 06:59:03;;;;;;;0.60;0.50;;;19.70;99.90;;;;;;5098566;28;20032;-70
2022/07/31 07:01:28;;;;;;;0.75;0.60;;;19.80;99.90;;;;;;5056587;28;20047;-70
2022/07/31 07:03:54;;;;;;;;;;;19.80;99.90;;;;;;5100054;28;20036;-71
2022/07/31 07:06:20;;;;;;;0.50;0.50;;;19.90;99.90;;;;;;5086317;28;20006;-71
2022/07/31 07:08:45;;;;;;;;;;;19.90;99.90;;;;;;5107328;28;20039;-70
2022/07/31 07:11:11;;;;;;;0.95;0.75;;;19.90;99.90;;;;;;5099018;28;20266;-70
2022/07/31 07:13:37;;;;;;;;;;;19.90;99.90;;;;;;5080677;28;20043;-72
2022/07/31 07:16:03;;;;;;;0.65;0.50;;;20.00;99.90;;;;;;5089284;28;19915;-72
2022/07/31 07:18:28;;;;;;;;;;;20.00;99.90;;;;;;5110567;28;20044;-72
2022/07/31 07:20:54;;;;;;;0.63;0.45;;;20.00;99.90;;;;;;5110053;28;19922;-72
2022/07/31 07:23:20;;;;;;;;;;;20.00;99.90;;;;;;5080249;28;20082;-72
2022/07/31 07:25:45;;;;;;;0.63;0.55;;;20.00;99.90;;;;;;5103743;28;20044;-72
2022/07/31 07:28:12;;;;;;;;;;;20.10;99.90;;;;;;5093756;28;20213;-72
2022/07/31 07:30:38;;;;;;;0.60;0.60;;;20.10;99.90;;;;;;5094123;28;19920;-72
2022/07/31 07:33:04;;;;;;;0.85;0.63;;;20.20;99.90;;;;;;5102495;28;20051;-72
2022/07/31 07:35:30;;;;;;;;;;;20.30;99.90;;;;;;5104313;28;20039;-72
2022/07/31 07:37:56;;;;;;;0.55;0.55;;;20.30;99.90;;;;;;5094997;28;20410;-70
2022/07/31 07:40:24;;;;;;;0.63;0.63;;;20.40;99.90;;;;;;5100952;28;20043;-70
2022/07/31 07:42:50;;;;;;;0.70;0.60;;;20.40;99.90;;;;;;5103247;28;20040;-70
2022/07/31 07:45:15;;;;;;;;;;;20.40;99.90;;;;;;5098224;28;20499;-70
2022/07/31 07:47:41;;;;;;;2.88;0.93;;;20.40;99.90;;;;;;5097963;28;20010;-72
2022/07/31 07:50:07;;;;;;;;;;;20.50;99.90;;;;;;5098665;28;20059;-70
2022/07/31 07:52:37;;;;;;;1.42;0.90;;;20.50;99.90;;;;;;5097726;28;19915;-70
2022/07/31 07:55:04;;;;;;;1.52;0.93;;;20.50;99.90;;;;;;5092174;28;20048;-70
2022/07/31 07:57:30;;;;;;;0.95;0.70;;;20.70;99.90;;;;;;5098184;28;20040;-70
2022/07/31 07:59:59;;;;;;;;;;;21.00;99.90;;;;;;5110181;28;20054;-70
2022/07/31 08:02:25;;;;;;;1.13;0.82;;;21.30;99.90;;;;;;5105039;28;19925;-71
2022/07/31 08:04:51;;;;;;;1.25;0.80;;;21.40;99.90;;;;;;5052567;28;20783;-71
2022/07/31 08:07:25;;;;;;;1.08;0.90;;;21.50;99.90;;;;;;5082773;28;20138;-71
2022/07/31 08:09:50;;;;;;;0.85;0.80;;;21.50;99.90;;;;;;5105800;28;20403;-70
2022/07/31 08:12:16;;;;;;;1.45;1.00;;;21.60;99.90;;;;;;5101320;28;20040;-72
2022/07/31 08:14:42;;;;;;;1.45;1.15;;;21.70;99.90;;;;;;5094420;28;20446;-70
2022/07/31 08:17:12;;;;;;;3.15;1.42;;;21.70;99.90;;;;;;5076060;28;20043;-74
2022/07/31 08:19:38;;;;;;;2.70;1.52;;;21.60;99.90;;;;;;5090751;28;20035;-74
2022/07/31 08:22:03;;;;;;;1.70;1.20;;;21.50;99.90;;;;;;5089711;28;20047;-73
2022/07/31 08:24:29;;;;;;;2.13;1.10;;;21.40;99.90;;;;;;5091406;28;20360;-74
2022/07/31 08:29:39;;;;;;;2.28;1.40;;;21.30;99.90;;;;;;5110049;28;19945;-74
2022/07/31 08:32:05;;;;;;;1.55;1.10;;;21.40;99.90;;;;;;5106942;28;20036;-71
2022/07/31 08:34:31;;;;;;;1.90;1.10;;;21.40;99.90;;;;;;5080239;28;20089;-73
2022/07/31 08:36:57;;;;;;;1.95;1.10;;;21.40;99.90;;;;;;5104028;28;20040;-74
2022/07/31 08:39:22;;;;;;;;;;;21.40;99.90;;;;;;5104076;28;20039;-74
2022/07/31 08:41:48;;;;;;;2.08;1.40;;;21.40;99.90;;;;;;5095665;28;20538;-74
2022/07/31 08:44:14;;;;;;;;;;;21.40;99.90;;;;;;5103734;28;20054;-72
2022/07/31 08:46:40;;;;;;;1.48;1.10;;;21.30;99.90;;;;;;5099701;28;19963;-74
2022/07/31 08:49:06;;;;;;;;;;;21.30;99.90;;;;;;5104906;28;20058;-74
2022/07/31 08:51:37;;;;;;;2.95;1.40;;;21.30;99.90;;;;;;5108046;28;19939;-73
2022/07/31 08:54:07;;;;;;;1.70;0.95;;;21.20;99.90;;;;;;5090124;28;20047;-73
2022/07/31 08:56:34;;;;;;;0.85;0.70;;;21.20;99.90;;;;;;5104297;28;20116;-74
2022/07/31 08:59:00;;;;;;;0.98;0.80;;;21.20;99.90;;;;;;5109436;28;20035;-72
2022/07/31 09:01:27;;;;;;;3.17;1.90;;;21.20;99.90;;;;;;5090268;28;20047;-69
2022/07/31 09:03:53;;;;;;;4.10;1.85;;;21.10;99.90;;;;;;5077568;28;20130;-70
2022/07/31 09:06:19;;;;;;;2.33;1.50;;;21.00;99.90;;;;;;5102021;28;20052;-70
2022/07/31 09:08:45;;;;;;;1.85;1.20;;;20.90;99.90;;;;;;5098332;28;20040;-71
2022/07/31 09:11:13;;;;;;;3.38;2.30;;;20.80;99.90;;;;;;5111249;28;20054;-70
2022/07/31 09:13:40;;;;;;;3.78;1.83;;;20.50;99.90;;;;;;5109725;28;20465;-70
2022/07/31 09:16:06;;;;;;;2.75;1.60;;;20.50;99.90;;;;;;5099010;28;20049;-71
2022/07/31 09:18:32;;;;;;;2.25;1.20;;;20.40;99.90;;;;;;5110380;28;20092;-71
2022/07/31 09:21:03;;;;;;;1.20;1.00;;;20.40;99.90;;;;;;5096415;28;20047;-70
2022/07/31 09:23:29;;;;;;;1.30;1.05;;;20.30;99.90;;;;;;5103408;28;20531;-70
2022/07/31 09:25:56;;;;;;;1.85;1.15;;;20.30;99.90;;;;;;5074891;28;20039;-70
2022/07/31 09:28:39;;;;;;;2.00;1.10;;;20.30;99.90;;;;;;5100429;28;20052;-70
2022/07/31 09:31:08;;;;;;;1.52;1.10;;;20.30;99.90;;;;;;5103497;28;20071;-70
2022/07/31 09:33:37;;;;;;;1.27;0.90;;;20.30;99.90;;;;;;5092656;28;20036;-74
2022/07/31 09:36:03;;;;;;;1.27;0.80;;;20.20;99.90;;;;;;5096793;28;20695;-74
2022/07/31 09:38:31;;;;;;;1.63;0.90;;;20.20;99.90;;;;;;5097283;28;20040;-74
2022/07/31 09:41:18;;;;;;;0.98;0.90;;;20.20;99.90;;;;;;5079072;28;20089;-74
2022/07/31 09:44:02;;;;;;;0.70;0.70;;;20.20;99.90;;;;;;5077882;28;20044;-74
2022/07/31 09:46:43;;;;;;;0.85;0.60;;;20.20;99.90;;;;;;5075589;28;20124;-74
2022/07/31 09:49:09;;;;;;;1.15;0.70;;;20.10;99.90;;;;;;5097004;28;20063;-74
2022/07/31 09:51:45;;;;;;;;;;;20.10;99.90;;;;;;5108229;28;20040;-74
2022/07/31 09:54:29;;;;;;;1.20;0.60;;;20.10;99.90;;;;;;5081335;28;19916;-74
2022/07/31 09:56:56;;;;;;;1.20;1.10;;;20.00;99.90;;;;;;5101154;27;20043;-74
2022/07/31 09:59:22;;;;;;;1.20;0.90;;;19.90;99.90;;;;;;5094368;28;20188;-74
2022/07/31 10:01:48;;;;;;;1.80;1.10;;;19.90;99.90;;;;;;5095069;28;20038;-74
2022/07/31 10:04:19;;;;;;;1.60;1.08;;;19.80;99.90;;;;;;5099967;28;20028;-74
2022/07/31 10:06:51;;;;;;;1.55;0.90;;;19.90;99.90;;;;;;5096659;28;20403;-74
2022/07/31 10:09:20;;;;;;;0.82;0.60;;;19.70;99.90;;;;;;5100911;28;20039;-74
2022/07/31 10:11:48;;;;;;;0.73;0.68;;;19.90;99.90;;;;;;5100114;28;20399;-75
2022/07/31 10:14:29;;;;;;;0.68;0.63;;;19.70;99.90;;;;;;5100045;28;20088;-74
2022/07/31 10:16:57;;;;;;;0.77;0.70;;;19.90;99.90;;;;;;5105302;28;20031;-74
2022/07/31 10:19:26;;;;;;;1.13;0.80;;;19.80;99.90;;;;;;5094762;28;20483;-75
2022/07/31 10:21:58;;;;;;;0.80;0.70;;;19.80;99.90;;;;;;5096914;28;20048;-74
2022/07/31 10:24:27;;;;;;;1.23;1.00;;;19.90;99.90;;;;;;5090547;28;20385;-74
2022/07/31 10:26:59;;;;;;;1.20;0.70;;;19.90;99.90;;;;;;5096570;28;20489;-74
2022/07/31 10:29:26;;;;;;;1.23;0.77;;;20.10;99.90;;;;;;5101459;28;20570;-75
2022/07/31 10:31:52;;;;;;;1.05;0.95;;;20.10;99.90;;;;;;5075687;28;20040;-75
2022/07/31 10:34:20;;;;;;;1.50;0.80;;;19.90;99.90;;;;;;5097352;28;20043;-74
2022/07/31 10:36:49;;;;;;;1.27;0.98;;;19.90;99.90;;;;;;5103002;27;20590;-74
2022/07/31 10:39:27;;;;;;;1.10;1.00;;;19.70;99.90;;;;;;5073860;28;20352;-74
2022/07/31 10:41:58;;;;;;;1.00;0.90;;;19.80;99.90;;;;;;5095911;28;20169;-74
2022/07/31 10:44:38;;;;;;;1.40;0.85;;;19.90;99.90;;;;;;5092677;28;20364;-74
2022/07/31 10:47:17;;;;;;;1.17;0.90;;;19.60;99.90;;;;;;5094338;28;20052;-74
2022/07/31 10:49:47;;;;;;;1.15;0.90;;;19.80;99.90;;;;;;5088387;28;20051;-74
2022/07/31 10:52:14;;;;;;;1.08;0.90;;;19.50;99.90;;;;;;5099672;28;20514;-74
2022/07/31 10:54:45;;;;;;;1.27;1.10;;;19.80;99.90;;;;;;5089282;28;20071;-74
2022/07/31 10:57:22;;;;;;;1.63;1.10;;;19.60;99.90;;;;;;5093937;28;20121;-74
2022/07/31 10:59:48;;;;;;;1.20;0.90;;;19.50;99.90;;;;;;5090735;28;20123;-74
2022/07/31 11:02:29;;;;;;;0.80;0.73;;;19.40;99.90;;;;;;5092329;28;20449;-74
2022/07/31 11:05:12;;;;;;;1.00;0.88;;;19.60;99.90;;;;;;5102725;28;20043;-74
2022/07/31 11:07:43;;;;;;;1.00;0.85;;;19.70;99.90;;;;;;5089439;28;20044;-69
2022/07/31 11:10:12;;;;;;;1.05;0.70;;;19.70;99.90;;;;;;5078916;28;20044;-69
2022/07/31 11:12:38;;;;;;;0.93;0.70;;;19.50;99.90;;;;;;5092557;28;20047;-70
2022/07/31 11:15:15;;;;;;;0.88;0.88;;;19.40;99.90;;;;;;5076512;28;20062;-69
2022/07/31 11:17:41;;;;;;;1.20;1.10;;;19.60;99.90;;;;;;5071369;28;20063;-73
2022/07/31 11:20:16;;;;;;;;;;;19.40;99.90;;;;;;5074615;28;20094;-74
2022/07/31 11:22:42;;;;;;;1.13;1.02;;;19.20;99.90;;;;;;5093338;28;19995;-74
2022/07/31 11:25:11;;;;;;;;;;;19.50;99.90;;;;;;5093108;28;20054;-74
2022/07/31 11:27:37;;;;;;;1.38;1.20;;;19.20;99.90;;;;;;5095079;28;20364;-74
2022/07/31 11:30:06;;;;;;;;;;;19.50;99.90;;;;;;5093685;28;20042;-74
2022/07/31 11:32:32;;;;;;;1.88;1.50;;;19.10;99.90;;;;;;5082951;28;19920;-74
2022/07/31 11:34:58;;;;;;;;;;;19.20;99.90;;;;;;5092509;28;20062;-74
2022/07/31 11:37:30;;;;;;;1.13;1.00;;;19.50;99.90;;;;;;5094886;28;19938;-74
2022/07/31 11:39:57;;;;;;;2.03;1.55;;;18.80;99.90;;;;;;5102581;28;20047;-74
2022/07/31 11:42:26;;;;;;;3.55;2.10;;;19.40;99.90;;;;;;5100635;28;20131;-74
2022/07/31 11:44:59;;;;;;;1.95;1.60;;;18.90;99.90;;;;;;5098021;28;20051;-74
2022/07/31 11:47:36;;;;;;;1.38;1.25;;;19.10;99.90;;;;;;5096900;28;20048;-74
2022/07/31 11:50:03;;;;;;;2.03;1.35;;;19.20;99.90;;;;;;5071728;28;20131;-74
2022/07/31 11:52:33;;;;;;;1.70;1.50;;;18.70;99.90;;;;;;5088533;28;20071;-74
2022/07/31 11:55:07;;;;;;;3.17;1.80;;;19.20;99.90;;;;;;5089623;28;20130;-74
2022/07/31 11:57:33;;;;;;;1.70;1.50;;;18.50;99.90;;;;;;5073504;28;20047;-74
2022/07/31 12:00:13;;;;;;;1.88;1.50;;;18.50;99.90;;;;;;5090054;28;20642;-75
2022/07/31 12:02:44;;;;;;;1.80;1.60;;;19.10;99.90;;;;;;5089813;28;20341;-75
2022/07/31 12:05:12;;;;;;;1.70;1.40;;;18.50;99.90;;;;;;5089211;28;20101;-75
2022/07/31 12:07:40;;;;;;;1.50;1.10;;;18.40;99.90;;;;;;5095644;28;20164;-75
2022/07/31 12:10:11;;;;;;;2.17;1.40;;;19.00;99.90;;;;;;5096936;28;20040;-73
2022/07/31 12:12:38;;;;;;;1.42;1.30;;;18.40;99.90;;;;;;5095475;28;20051;-74
2022/07/31 12:15:19;;;;;;;1.80;1.58;;;19.10;99.90;;;;;;5096613;28;20052;-74
2022/07/31 12:17:46;;;;;;;1.55;1.45;;;18.20;99.90;;;;;;5093361;28;20487;-74
2022/07/31 12:20:12;;;;;;;2.17;1.73;;;18.10;99.90;;;;;;5092703;28;20082;-73
2022/07/31 12:22:38;;;;;;;2.55;1.70;;;19.10;99.90;;;;;;5093501;28;20111;-73
2022/07/31 12:25:08;;;;;;;;;;;18.30;99.90;;;;;;5093082;28;20457;-73
2022/07/31 12:27:35;;;;;;;2.65;2.20;;;19.10;99.90;;;;;;5092857;28;19927;-73
2022/07/31 12:30:15;;;;;;;1.90;1.40;;;18.20;99.90;;;;;;5093079;28;20101;-73
2022/07/31 12:32:41;;;;;;;2.03;1.70;;;19.10;99.90;;;;;;5093741;28;20038;-74
2022/07/31 12:35:07;;;;;;;;;;;18.80;99.90;;;;;;5093215;28;20052;-74
2022/07/31 12:37:46;;;;;;;2.15;1.80;;;18.10;99.90;;;;;;5108069;28;19955;-74
2022/07/31 12:40:26;;;;;;;1.90;1.52;;;18.50;99.90;;;;;;5101671;28;20043;-74
2022/07/31 12:42:53;;;;;;;1.75;1.60;;;18.30;99.90;;;;;;5093846;28;20040;-74
2022/07/31 12:45:36;;;;;;;1.92;1.60;;;18.60;99.90;;;;;;5101631;28;20054;-74
2022/07/31 12:48:03;;;;;;;1.75;1.48;;;18.80;99.90;;;;;;5113053;28;20413;-74
2022/07/31 12:50:30;;;;;;;2.83;1.90;;;18.80;99.90;;;;;;5112658;28;20051;-74
2022/07/31 12:52:59;;;;;;;1.83;1.52;;;18.40;99.90;;;;;;5098856;28;20414;-74
2022/07/31 12:55:25;;;;;;;1.48;1.38;;;19.00;99.90;;;;;;5112947;28;20044;-73
2022/07/31 12:57:50;;;;;;;;;;;18.40;99.90;;;;;;5099284;28;20032;-73
2022/07/31 13:00:17;;;;;;;1.30;1.20;;;18.40;99.90;;;;;;5111776;28;20002;-74
2022/07/31 13:02:44;;;;;;;1.20;1.10;;;18.70;99.90;;;;;;5112523;28;20079;-73
2022/07/31 13:05:09;;;;;;;;;;;19.20;99.90;;;;;;5096080;28;20104;-74
2022/07/31 13:07:35;;;;;;;1.00;0.90;;;18.80;99.90;;;;;;5103172;28;19916;-73